Anderson, South Dakota
Current Conditions -  °F | °C
As of 10:16 AM on Wednesday 26 Nov 2014 (Local Time) from KHEI Reporting Station
Light Snow Light Snow  
Wind Chill: 14°   Ceiling: 900
Heat Index: 24°   Visibility: 4mi
Dew Point: 19°   Wind: 10mph
Humidity: 81%   Direction: 10°N
Pressure: 30.25"   Gusts: NA
Location:  45.2919°N, 102.298°W
Report Text: KHEI 261716Z AUTO 01009KT 4SM -SN OVC009 M04/M07 A3025 RMK AO2 CIG 008V012 P0000 T10441072
Loading
Personal Weather Stations






























Interactive Weather Map New forecast layout! Learn more

10-Day Weather Forecast

Advertisements
Track Severe Weather on mobile